sensor_id;sensor_type;location;lat;lon;timestamp;temperature;humidity
52555;DHT22;38455;52.710;6.502;2022-08-19T00:00:38;17.50;99.90
52555;DHT22;38455;52.710;6.502;2022-08-19T00:03:05;17.50;99.90
52555;DHT22;38455;52.710;6.502;2022-08-19T00:05:32;17.50;99.90
52555;DHT22;38455;52.710;6.502;2022-08-19T00:07:57;17.40;99.90
52555;DHT22;38455;52.710;6.502;2022-08-19T00:10:23;17.40;99.90
52555;DHT22;38455;52.710;6.502;2022-08-19T00:12:49;17.40;99.90
52555;DHT22;38455;52.710;6.502;2022-08-19T00:15:17;17.40;99.90
52555;DHT22;38455;52.710;6.502;2022-08-19T00:17:44;17.30;99.90
52555;DHT22;38455;52.710;6.502;2022-08-19T00:20:13;17.30;99.90
52555;DHT22;38455;52.710;6.502;2022-08-19T00:22:42;17.30;99.90
52555;DHT22;38455;52.710;6.502;2022-08-19T00:25:08;17.20;99.90
52555;DHT22;38455;52.710;6.502;2022-08-19T00:27:34;17.20;99.90
52555;DHT22;38455;52.710;6.502;2022-08-19T00:30:00;17.20;99.90
52555;DHT22;38455;52.710;6.502;2022-08-19T00:32:28;17.10;99.90
52555;DHT22;38455;52.710;6.502;2022-08-19T00:34:54;17.10;99.90
52555;DHT22;38455;52.710;6.502;2022-08-19T00:37:22;17.00;99.90
52555;DHT22;38455;52.710;6.502;2022-08-19T00:39:49;17.00;99.90
52555;DHT22;38455;52.710;6.502;2022-08-19T00:42:17;17.00;99.90
52555;DHT22;38455;52.710;6.502;2022-08-19T00:44:42;17.00;99.90
52555;DHT22;38455;52.710;6.502;2022-08-19T00:47:08;17.00;99.90
52555;DHT22;38455;52.710;6.502;2022-08-19T00:49:41;16.90;99.90
52555;DHT22;38455;52.710;6.502;2022-08-19T00:52:21;16.80;99.90
52555;DHT22;38455;52.710;6.502;2022-08-19T00:54:48;16.80;99.90
52555;DHT22;38455;52.710;6.502;2022-08-19T00:57:18;16.70;99.90
52555;DHT22;38455;52.710;6.502;2022-08-19T00:59:47;16.70;99.90
52555;DHT22;38455;52.710;6.502;2022-08-19T01:02:14;16.70;99.90
52555;DHT22;38455;52.710;6.502;2022-08-19T01:04:40;16.70;99.90
52555;DHT22;38455;52.710;6.502;2022-08-19T01:07:05;16.60;99.90
52555;DHT22;38455;52.710;6.502;2022-08-19T01:09:32;16.60;99.90
52555;DHT22;38455;52.710;6.502;2022-08-19T01:11:58;16.60;99.90
52555;DHT22;38455;52.710;6.502;2022-08-19T01:14:25;16.60;99.90
52555;DHT22;38455;52.710;6.502;2022-08-19T01:16:52;16.60;99.90
52555;DHT22;38455;52.710;6.502;2022-08-19T01:19:24;16.50;99.90
52555;DHT22;38455;52.710;6.502;2022-08-19T01:22:03;16.50;99.90
52555;DHT22;38455;52.710;6.502;2022-08-19T01:24:31;16.50;99.90
52555;DHT22;38455;52.710;6.502;2022-08-19T01:26:57;16.50;99.90
52555;DHT22;38455;52.710;6.502;2022-08-19T01:29:23;16.50;99.90
52555;DHT22;38455;52.710;6.502;2022-08-19T01:31:48;16.50;99.90
52555;DHT22;38455;52.710;6.502;2022-08-19T01:34:18;16.50;99.90
52555;DHT22;38455;52.710;6.502;2022-08-19T01:36:46;16.50;99.90
52555;DHT22;38455;52.710;6.502;2022-08-19T01:39:24;16.40;99.90
52555;DHT22;38455;52.710;6.502;2022-08-19T01:41:50;16.50;99.90
52555;DHT22;38455;52.710;6.502;2022-08-19T01:44:19;16.40;99.90
52555;DHT22;38455;52.710;6.502;2022-08-19T01:46:49;16.40;99.90
52555;DHT22;38455;52.710;6.502;2022-08-19T01:49:18;16.40;99.90
52555;DHT22;38455;52.710;6.502;2022-08-19T01:51:44;16.40;99.90
52555;DHT22;38455;52.710;6.502;2022-08-19T01:54:12;16.40;99.90
52555;DHT22;38455;52.710;6.502;2022-08-19T01:56:38;16.30;99.90
52555;DHT22;38455;52.710;6.502;2022-08-19T01:59:10;16.30;99.90
52555;DHT22;38455;52.710;6.502;2022-08-19T02:01:36;16.30;99.90
52555;DHT22;38455;52.710;6.502;2022-08-19T02:04:02;16.20;99.90
52555;DHT22;38455;52.710;6.502;2022-08-19T02:06:28;16.10;99.90
52555;DHT22;38455;52.710;6.502;2022-08-19T02:08:55;16.00;99.90
52555;DHT22;38455;52.710;6.502;2022-08-19T02:11:26;16.00;99.90
52555;DHT22;38455;52.710;6.502;2022-08-19T02:13:53;15.90;99.90
52555;DHT22;38455;52.710;6.502;2022-08-19T02:16:19;15.90;99.90
52555;DHT22;38455;52.710;6.502;2022-08-19T02:18:46;15.80;99.90
52555;DHT22;38455;52.710;6.502;2022-08-19T02:21:15;15.70;99.90
52555;DHT22;38455;52.710;6.502;2022-08-19T02:23:41;15.70;99.90
52555;DHT22;38455;52.710;6.502;2022-08-19T02:26:07;15.70;99.90
52555;DHT22;38455;52.710;6.502;2022-08-19T02:28:33;15.70;99.90
52555;DHT22;38455;52.710;6.502;2022-08-19T02:30:59;15.70;99.90
52555;DHT22;38455;52.710;6.502;2022-08-19T02:33:26;15.70;99.90
52555;DHT22;38455;52.710;6.502;2022-08-19T02:35:52;15.60;99.90
52555;DHT22;38455;52.710;6.502;2022-08-19T02:38:17;15.60;99.90
52555;DHT22;38455;52.710;6.502;2022-08-19T02:40:55;15.60;99.90
52555;DHT22;38455;52.710;6.502;2022-08-19T02:43:22;15.60;99.90
52555;DHT22;38455;52.710;6.502;2022-08-19T02:45:49;15.60;99.90
52555;DHT22;38455;52.710;6.502;2022-08-19T02:48:22;15.60;99.90
52555;DHT22;38455;52.710;6.502;2022-08-19T02:50:49;15.70;99.90
52555;DHT22;38455;52.710;6.502;2022-08-19T02:53:22;15.70;99.90
52555;DHT22;38455;52.710;6.502;2022-08-19T02:55:49;15.80;99.90
52555;DHT22;38455;52.710;6.502;2022-08-19T02:58:15;15.70;99.90
52555;DHT22;38455;52.710;6.502;2022-08-19T03:00:46;15.70;99.90
52555;DHT22;38455;52.710;6.502;2022-08-19T03:03:12;15.60;99.90
52555;DHT22;38455;52.710;6.502;2022-08-19T03:05:39;15.60;99.90
52555;DHT22;38455;52.710;6.502;2022-08-19T03:08:05;15.50;99.90
52555;DHT22;38455;52.710;6.502;2022-08-19T03:10:32;15.50;99.90
52555;DHT22;38455;52.710;6.502;2022-08-19T03:12:58;15.50;99.90
52555;DHT22;38455;52.710;6.502;2022-08-19T03:15:24;15.50;99.90
52555;DHT22;38455;52.710;6.502;2022-08-19T03:17:50;15.40;99.90
52555;DHT22;38455;52.710;6.502;2022-08-19T03:20:15;15.40;99.90
52555;DHT22;38455;52.710;6.502;2022-08-19T03:22:41;15.40;99.90
52555;DHT22;38455;52.710;6.502;2022-08-19T03:25:07;15.40;99.90
52555;DHT22;38455;52.710;6.502;2022-08-19T03:27:32;15.30;99.90
52555;DHT22;38455;52.710;6.502;2022-08-19T03:29:58;15.30;99.90
52555;DHT22;38455;52.710;6.502;2022-08-19T03:32:24;15.20;99.90
52555;DHT22;38455;52.710;6.502;2022-08-19T03:34:50;15.20;99.90
52555;DHT22;38455;52.710;6.502;2022-08-19T03:37:16;15.30;99.90
52555;DHT22;38455;52.710;6.502;2022-08-19T03:39:41;15.20;99.90
52555;DHT22;38455;52.710;6.502;2022-08-19T03:42:10;15.20;99.90
52555;DHT22;38455;52.710;6.502;2022-08-19T03:44:36;15.20;99.90
52555;DHT22;38455;52.710;6.502;2022-08-19T03:47:03;15.20;99.90
52555;DHT22;38455;52.710;6.502;2022-08-19T03:49:31;15.10;99.90
52555;DHT22;38455;52.710;6.502;2022-08-19T03:51:58;15.10;99.90
52555;DHT22;38455;52.710;6.502;2022-08-19T03:54:26;15.10;99.90
52555;DHT22;38455;52.710;6.502;2022-08-19T03:56:54;15.10;99.90
52555;DHT22;38455;52.710;6.502;2022-08-19T03:59:24;15.10;99.90
52555;DHT22;38455;52.710;6.502;2022-08-19T04:01:53;15.00;99.90
52555;DHT22;38455;52.710;6.502;2022-08-19T04:04:18;15.00;99.90
52555;DHT22;38455;52.710;6.502;2022-08-19T04:06:44;15.00;99.90
52555;DHT22;38455;52.710;6.502;2022-08-19T04:09:11;15.00;99.90
52555;DHT22;38455;52.710;6.502;2022-08-19T04:11:40;15.00;99.90
52555;DHT22;38455;52.710;6.502;2022-08-19T04:14:08;15.00;99.90
52555;DHT22;38455;52.710;6.502;2022-08-19T04:16:34;14.90;99.90
52555;DHT22;38455;52.710;6.502;2022-08-19T04:19:02;14.90;99.90
52555;DHT22;38455;52.710;6.502;2022-08-19T04:21:29;14.90;99.90
52555;DHT22;38455;52.710;6.502;2022-08-19T04:23:55;14.90;99.90
52555;DHT22;38455;52.710;6.502;2022-08-19T04:26:27;14.80;99.90
52555;DHT22;38455;52.710;6.502;2022-08-19T04:28:54;14.80;99.90
52555;DHT22;38455;52.710;6.502;2022-08-19T04:31:25;14.80;99.90
52555;DHT22;38455;52.710;6.502;2022-08-19T04:33:56;14.80;99.90
52555;DHT22;38455;52.710;6.502;2022-08-19T04:36:28;14.80;99.90
52555;DHT22;38455;52.710;6.502;2022-08-19T04:38:56;14.80;99.90
52555;DHT22;38455;52.710;6.502;2022-08-19T04:41:22;14.80;99.90
52555;DHT22;38455;52.710;6.502;2022-08-19T04:44:06;14.70;99.90
52555;DHT22;38455;52.710;6.502;2022-08-19T04:46:32;14.80;99.90
52555;DHT22;38455;52.710;6.502;2022-08-19T04:48:59;14.80;99.90
52555;DHT22;38455;52.710;6.502;2022-08-19T04:51:26;14.80;99.90
52555;DHT22;38455;52.710;6.502;2022-08-19T04:53:52;14.80;99.90
52555;DHT22;38455;52.710;6.502;2022-08-19T04:56:20;14.80;99.90
52555;DHT22;38455;52.710;6.502;2022-08-19T04:58:52;14.80;99.90
52555;DHT22;38455;52.710;6.502;2022-08-19T05:01:21;14.80;99.90
52555;DHT22;38455;52.710;6.502;2022-08-19T05:03:48;14.90;99.90
52555;DHT22;38455;52.710;6.502;2022-08-19T05:06:15;14.90;99.90
52555;DHT22;38455;52.710;6.502;2022-08-19T05:08:42;14.90;99.90
52555;DHT22;38455;52.710;6.502;2022-08-19T05:11:30;14.80;99.90
52555;DHT22;38455;52.710;6.502;2022-08-19T05:13:57;14.80;99.90
52555;DHT22;38455;52.710;6.502;2022-08-19T05:16:24;14.80;99.90
52555;DHT22;38455;52.710;6.502;2022-08-19T05:18:50;14.80;99.90
52555;DHT22;38455;52.710;6.502;2022-08-19T05:21:35;14.90;99.90
52555;DHT22;38455;52.710;6.502;2022-08-19T05:24:21;15.00;99.90
52555;DHT22;38455;52.710;6.502;2022-08-19T05:26:49;15.10;99.90
52555;DHT22;38455;52.710;6.502;2022-08-19T05:29:17;15.20;99.90
52555;DHT22;38455;52.710;6.502;2022-08-19T05:31:45;15.40;99.90
52555;DHT22;38455;52.710;6.502;2022-08-19T05:34:12;15.60;99.90
52555;DHT22;38455;52.710;6.502;2022-08-19T05:36:42;15.90;99.90
52555;DHT22;38455;52.710;6.502;2022-08-19T05:39:11;16.10;99.90
52555;DHT22;38455;52.710;6.502;2022-08-19T05:41:42;16.40;99.90
52555;DHT22;38455;52.710;6.502;2022-08-19T05:44:08;16.90;99.90
52555;DHT22;38455;52.710;6.502;2022-08-19T05:46:36;17.30;99.90
52555;DHT22;38455;52.710;6.502;2022-08-19T05:49:04;17.70;99.90
52555;DHT22;38455;52.710;6.502;2022-08-19T05:51:31;18.30;99.90
52555;DHT22;38455;52.710;6.502;2022-08-19T05:53:58;18.90;99.90
52555;DHT22;38455;52.710;6.502;2022-08-19T05:56:24;19.40;99.90
52555;DHT22;38455;52.710;6.502;2022-08-19T05:58:49;20.10;99.90
52555;DHT22;38455;52.710;6.502;2022-08-19T06:01:17;20.60;99.90
52555;DHT22;38455;52.710;6.502;2022-08-19T06:03:44;21.00;99.90
52555;DHT22;38455;52.710;6.502;2022-08-19T06:06:12;21.40;99.90
52555;DHT22;38455;52.710;6.502;2022-08-19T06:08:38;21.70;99.90
52555;DHT22;38455;52.710;6.502;2022-08-19T06:13:46;22.50;99.90
52555;DHT22;38455;52.710;6.502;2022-08-19T06:16:15;23.00;99.90
52555;DHT22;38455;52.710;6.502;2022-08-19T06:18:52;23.20;99.90
52555;DHT22;38455;52.710;6.502;2022-08-19T06:21:23;23.40;99.90
52555;DHT22;38455;52.710;6.502;2022-08-19T06:23:50;23.80;99.90
52555;DHT22;38455;52.710;6.502;2022-08-19T06:26:18;24.20;99.90
52555;DHT22;38455;52.710;6.502;2022-08-19T06:28:44;24.30;99.90
52555;DHT22;38455;52.710;6.502;2022-08-19T06:31:32;24.30;99.90
52555;DHT22;38455;52.710;6.502;2022-08-19T06:34:03;24.40;99.90
52555;DHT22;38455;52.710;6.502;2022-08-19T06:36:36;24.90;99.90
52555;DHT22;38455;52.710;6.502;2022-08-19T06:39:06;25.20;99.90
52555;DHT22;38455;52.710;6.502;2022-08-19T06:41:36;25.50;99.90
52555;DHT22;38455;52.710;6.502;2022-08-19T06:44:04;25.80;99.90
52555;DHT22;38455;52.710;6.502;2022-08-19T06:46:30;26.00;99.90
52555;DHT22;38455;52.710;6.502;2022-08-19T06:48:56;26.30;99.90
52555;DHT22;38455;52.710;6.502;2022-08-19T06:51:22;26.40;99.90
52555;DHT22;38455;52.710;6.502;2022-08-19T06:53:50;26.80;99.90
52555;DHT22;38455;52.710;6.502;2022-08-19T06:56:17;27.10;99.90
52555;DHT22;38455;52.710;6.502;2022-08-19T06:58:43;27.70;99.90
52555;DHT22;38455;52.710;6.502;2022-08-19T07:01:09;28.10;99.90
52555;DHT22;38455;52.710;6.502;2022-08-19T07:03:37;28.50;99.90
52555;DHT22;38455;52.710;6.502;2022-08-19T07:06:06;29.00;99.90
52555;DHT22;38455;52.710;6.502;2022-08-19T07:08:33;29.30;99.90
52555;DHT22;38455;52.710;6.502;2022-08-19T07:10:59;29.70;99.90
52555;DHT22;38455;52.710;6.502;2022-08-19T07:13:25;29.90;99.90
52555;DHT22;38455;52.710;6.502;2022-08-19T07:15:51;30.20;99.90
52555;DHT22;38455;52.710;6.502;2022-08-19T07:18:18;30.40;99.90
52555;DHT22;38455;52.710;6.502;2022-08-19T07:20:46;30.80;99.90
52555;DHT22;38455;52.710;6.502;2022-08-19T07:23:11;30.80;99.70
52555;DHT22;38455;52.710;6.502;2022-08-19T07:25:37;31.10;99.50
52555;DHT22;38455;52.710;6.502;2022-08-19T07:28:04;31.40;99.10
52555;DHT22;38455;52.710;6.502;2022-08-19T07:30:30;31.70;98.10
52555;DHT22;38455;52.710;6.502;2022-08-19T07:32:56;31.70;97.80
52555;DHT22;38455;52.710;6.502;2022-08-19T07:35:22;31.80;97.50
52555;DHT22;38455;52.710;6.502;2022-08-19T07:37:48;32.00;97.00
52555;DHT22;38455;52.710;6.502;2022-08-19T07:40:14;32.30;96.00
52555;DHT22;38455;52.710;6.502;2022-08-19T07:42:40;32.40;95.50
52555;DHT22;38455;52.710;6.502;2022-08-19T07:45:07;32.90;94.70
52555;DHT22;38455;52.710;6.502;2022-08-19T07:47:33;33.00;94.20
52555;DHT22;38455;52.710;6.502;2022-08-19T07:49:58;33.20;93.40
52555;DHT22;38455;52.710;6.502;2022-08-19T07:52:24;33.30;92.90
52555;DHT22;38455;52.710;6.502;2022-08-19T07:54:50;33.40;92.10
52555;DHT22;38455;52.710;6.502;2022-08-19T07:57:16;33.60;91.70
52555;DHT22;38455;52.710;6.502;2022-08-19T07:59:42;33.60;90.90
52555;DHT22;38455;52.710;6.502;2022-08-19T08:02:08;33.90;90.50
52555;DHT22;38455;52.710;6.502;2022-08-19T08:04:34;34.20;90.10
52555;DHT22;38455;52.710;6.502;2022-08-19T08:07:18;34.20;89.90
52555;DHT22;38455;52.710;6.502;2022-08-19T08:10:05;34.30;88.90
52555;DHT22;38455;52.710;6.502;2022-08-19T08:12:35;34.60;87.30
52555;DHT22;38455;52.710;6.502;2022-08-19T08:15:05;34.90;85.60
52555;DHT22;38455;52.710;6.502;2022-08-19T08:17:33;34.90;84.60
52555;DHT22;38455;52.710;6.502;2022-08-19T08:19:58;34.90;84.50
52555;DHT22;38455;52.710;6.502;2022-08-19T08:22:25;35.10;83.10
52555;DHT22;38455;52.710;6.502;2022-08-19T08:27:41;35.30;81.40
52555;DHT22;38455;52.710;6.502;2022-08-19T08:30:12;35.50;78.50
52555;DHT22;38455;52.710;6.502;2022-08-19T08:32:39;35.40;79.00
52555;DHT22;38455;52.710;6.502;2022-08-19T08:35:06;35.60;79.10
52555;DHT22;38455;52.710;6.502;2022-08-19T08:37:33;35.80;78.40
52555;DHT22;38455;52.710;6.502;2022-08-19T08:39:58;36.00;77.30
52555;DHT22;38455;52.710;6.502;2022-08-19T08:42:30;36.20;76.70
52555;DHT22;38455;52.710;6.502;2022-08-19T08:47:25;36.20;75.30
52555;DHT22;38455;52.710;6.502;2022-08-19T08:50:06;36.30;73.30
52555;DHT22;38455;52.710;6.502;2022-08-19T08:52:36;36.20;73.40
52555;DHT22;38455;52.710;6.502;2022-08-19T08:55:12;36.50;73.70
52555;DHT22;38455;52.710;6.502;2022-08-19T09:00:20;36.40;73.50
52555;DHT22;38455;52.710;6.502;2022-08-19T09:02:46;36.30;73.10
52555;DHT22;38455;52.710;6.502;2022-08-19T09:05:12;36.80;71.90
52555;DHT22;38455;52.710;6.502;2022-08-19T09:07:53;36.90;71.70
52555;DHT22;38455;52.710;6.502;2022-08-19T09:10:52;36.80;70.10
52555;DHT22;38455;52.710;6.502;2022-08-19T09:13:29;37.30;69.20
52555;DHT22;38455;52.710;6.502;2022-08-19T09:16:07;37.40;69.70
52555;DHT22;38455;52.710;6.502;2022-08-19T09:18:49;37.20;69.50
52555;DHT22;38455;52.710;6.502;2022-08-19T09:21:19;37.60;67.60
52555;DHT22;38455;52.710;6.502;2022-08-19T09:23:46;37.80;67.50
52555;DHT22;38455;52.710;6.502;2022-08-19T09:26:14;38.10;67.40
52555;DHT22;38455;52.710;6.502;2022-08-19T09:28:46;37.80;66.60
52555;DHT22;38455;52.710;6.502;2022-08-19T09:31:13;37.80;65.60
52555;DHT22;38455;52.710;6.502;2022-08-19T09:33:40;37.90;67.00
52555;DHT22;38455;52.710;6.502;2022-08-19T09:36:11;38.40;66.00
52555;DHT22;38455;52.710;6.502;2022-08-19T09:38:38;38.10;65.30
52555;DHT22;38455;52.710;6.502;2022-08-19T09:41:11;38.30;65.50
52555;DHT22;38455;52.710;6.502;2022-08-19T09:43:39;38.60;64.10
52555;DHT22;38455;52.710;6.502;2022-08-19T09:46:07;39.00;63.50
52555;DHT22;38455;52.710;6.502;2022-08-19T09:48:35;39.00;64.10
52555;DHT22;38455;52.710;6.502;2022-08-19T09:53:29;39.10;62.90
52555;DHT22;38455;52.710;6.502;2022-08-19T09:55:55;38.90;61.70
52555;DHT22;38455;52.710;6.502;2022-08-19T09:58:21;39.10;62.20
52555;DHT22;38455;52.710;6.502;2022-08-19T10:00:48;38.90;61.10
52555;DHT22;38455;52.710;6.502;2022-08-19T10:03:13;38.90;60.20
52555;DHT22;38455;52.710;6.502;2022-08-19T10:05:39;39.10;59.60
52555;DHT22;38455;52.710;6.502;2022-08-19T10:08:20;39.40;59.60
52555;DHT22;38455;52.710;6.502;2022-08-19T10:10:48;39.60;59.90
52555;DHT22;38455;52.710;6.502;2022-08-19T10:13:17;39.60;59.00
52555;DHT22;38455;52.710;6.502;2022-08-19T10:15:45;39.70;59.40
52555;DHT22;38455;52.710;6.502;2022-08-19T10:18:11;39.60;59.50
52555;DHT22;38455;52.710;6.502;2022-08-19T10:20:36;39.70;58.70
52555;DHT22;38455;52.710;6.502;2022-08-19T10:23:03;39.30;59.50
52555;DHT22;38455;52.710;6.502;2022-08-19T10:25:29;38.80;59.40
52555;DHT22;38455;52.710;6.502;2022-08-19T10:27:54;39.20;58.60
52555;DHT22;38455;52.710;6.502;2022-08-19T10:30:21;39.50;58.70
52555;DHT22;38455;52.710;6.502;2022-08-19T10:32:47;39.60;59.60
52555;DHT22;38455;52.710;6.502;2022-08-19T10:35:13;39.70;58.40
52555;DHT22;38455;52.710;6.502;2022-08-19T10:37:40;39.70;58.10
52555;DHT22;38455;52.710;6.502;2022-08-19T10:40:07;39.30;59.10
52555;DHT22;38455;52.710;6.502;2022-08-19T10:42:34;39.60;58.40
52555;DHT22;38455;52.710;6.502;2022-08-19T10:45:00;39.40;59.10
52555;DHT22;38455;52.710;6.502;2022-08-19T10:47:26;38.90;59.20
52555;DHT22;38455;52.710;6.502;2022-08-19T10:49:53;38.90;57.90
52555;DHT22;38455;52.710;6.502;2022-08-19T10:52:43;39.10;57.80
52555;DHT22;38455;52.710;6.502;2022-08-19T10:55:09;39.10;58.10
52555;DHT22;38455;52.710;6.502;2022-08-19T10:57:53;39.30;58.10
52555;DHT22;38455;52.710;6.502;2022-08-19T11:00:20;39.40;57.90
52555;DHT22;38455;52.710;6.502;2022-08-19T11:02:46;39.30;57.90
52555;DHT22;38455;52.710;6.502;2022-08-19T11:05:12;39.40;58.00
52555;DHT22;38455;52.710;6.502;2022-08-19T11:07:40;39.30;58.00
52555;DHT22;38455;52.710;6.502;2022-08-19T11:10:08;39.00;57.90
52555;DHT22;38455;52.710;6.502;2022-08-19T11:12:36;38.80;58.30
52555;DHT22;38455;52.710;6.502;2022-08-19T11:15:04;38.80;58.90
52555;DHT22;38455;52.710;6.502;2022-08-19T11:17:29;38.60;58.80
52555;DHT22;38455;52.710;6.502;2022-08-19T11:19:56;38.50;58.40
52555;DHT22;38455;52.710;6.502;2022-08-19T11:22:22;38.50;58.80
52555;DHT22;38455;52.710;6.502;2022-08-19T11:24:48;38.50;59.50
52555;DHT22;38455;52.710;6.502;2022-08-19T11:27:13;38.80;59.80
52555;DHT22;38455;52.710;6.502;2022-08-19T11:29:39;39.00;58.40
52555;DHT22;38455;52.710;6.502;2022-08-19T11:32:09;39.30;58.70
52555;DHT22;38455;52.710;6.502;2022-08-19T11:34:36;39.40;58.20
52555;DHT22;38455;52.710;6.502;2022-08-19T11:37:02;39.30;58.20
52555;DHT22;38455;52.710;6.502;2022-08-19T11:39:30;39.60;57.30
52555;DHT22;38455;52.710;6.502;2022-08-19T11:42:00;38.80;56.80
52555;DHT22;38455;52.710;6.502;2022-08-19T11:44:28;39.30;56.70
52555;DHT22;38455;52.710;6.502;2022-08-19T11:46:56;39.80;56.80
52555;DHT22;38455;52.710;6.502;2022-08-19T11:49:23;39.70;57.60
52555;DHT22;38455;52.710;6.502;2022-08-19T11:51:48;39.50;56.90
52555;DHT22;38455;52.710;6.502;2022-08-19T11:54:16;39.40;55.80
52555;DHT22;38455;52.710;6.502;2022-08-19T11:56:43;38.70;55.40
52555;DHT22;38455;52.710;6.502;2022-08-19T11:59:09;38.10;55.40
52555;DHT22;38455;52.710;6.502;2022-08-19T12:01:36;37.80;55.20
52555;DHT22;38455;52.710;6.502;2022-08-19T12:04:02;37.90;56.70
52555;DHT22;38455;52.710;6.502;2022-08-19T12:06:31;38.30;56.00
52555;DHT22;38455;52.710;6.502;2022-08-19T12:09:02;39.00;56.60
52555;DHT22;38455;52.710;6.502;2022-08-19T12:11:29;39.40;55.40
52555;DHT22;38455;52.710;6.502;2022-08-19T12:13:54;39.30;55.50
52555;DHT22;38455;52.710;6.502;2022-08-19T12:16:25;39.40;56.10
52555;DHT22;38455;52.710;6.502;2022-08-19T12:18:52;39.80;54.70
52555;DHT22;38455;52.710;6.502;2022-08-19T12:21:21;39.80;53.40
52555;DHT22;38455;52.710;6.502;2022-08-19T12:23:48;39.70;52.80
52555;DHT22;38455;52.710;6.502;2022-08-19T12:26:14;39.40;52.40
52555;DHT22;38455;52.710;6.502;2022-08-19T12:28:40;39.00;52.30
52555;DHT22;38455;52.710;6.502;2022-08-19T12:31:06;38.70;53.60
52555;DHT22;38455;52.710;6.502;2022-08-19T12:33:32;38.40;54.00
52555;DHT22;38455;52.710;6.502;2022-08-19T12:36:03;38.10;54.70
52555;DHT22;38455;52.710;6.502;2022-08-19T12:38:30;37.70;55.80
52555;DHT22;38455;52.710;6.502;2022-08-19T12:40:55;37.60;55.90
52555;DHT22;38455;52.710;6.502;2022-08-19T12:43:21;37.20;56.00
52555;DHT22;38455;52.710;6.502;2022-08-19T12:45:46;36.80;57.00
52555;DHT22;38455;52.710;6.502;2022-08-19T12:48:13;36.40;57.50
52555;DHT22;38455;52.710;6.502;2022-08-19T12:50:40;36.20;58.10
52555;DHT22;38455;52.710;6.502;2022-08-19T12:53:06;35.90;58.20
52555;DHT22;38455;52.710;6.502;2022-08-19T12:55:32;35.80;58.80
52555;DHT22;38455;52.710;6.502;2022-08-19T12:57:57;35.60;59.00
52555;DHT22;38455;52.710;6.502;2022-08-19T13:00:24;35.30;58.40
52555;DHT22;38455;52.710;6.502;2022-08-19T13:02:51;35.10;58.20
52555;DHT22;38455;52.710;6.502;2022-08-19T13:05:20;34.80;58.10
52555;DHT22;38455;52.710;6.502;2022-08-19T13:07:48;34.70;59.00
52555;DHT22;38455;52.710;6.502;2022-08-19T13:10:17;34.60;58.60
52555;DHT22;38455;52.710;6.502;2022-08-19T13:12:44;34.50;59.20
52555;DHT22;38455;52.710;6.502;2022-08-19T13:15:10;34.30;60.70
52555;DHT22;38455;52.710;6.502;2022-08-19T13:17:36;34.10;61.70
52555;DHT22;38455;52.710;6.502;2022-08-19T13:20:03;34.20;62.70
52555;DHT22;38455;52.710;6.502;2022-08-19T13:22:30;34.40;62.50
52555;DHT22;38455;52.710;6.502;2022-08-19T13:24:56;35.20;62.00
52555;DHT22;38455;52.710;6.502;2022-08-19T13:27:22;35.80;60.50
52555;DHT22;38455;52.710;6.502;2022-08-19T13:29:48;35.80;59.90
52555;DHT22;38455;52.710;6.502;2022-08-19T13:32:32;35.80;59.20
52555;DHT22;38455;52.710;6.502;2022-08-19T13:35:17;35.60;59.40
52555;DHT22;38455;52.710;6.502;2022-08-19T13:37:43;35.40;59.30
52555;DHT22;38455;52.710;6.502;2022-08-19T13:40:15;35.10;60.00
52555;DHT22;38455;52.710;6.502;2022-08-19T13:42:44;34.90;60.30
52555;DHT22;38455;52.710;6.502;2022-08-19T13:45:11;34.70;61.60
52555;DHT22;38455;52.710;6.502;2022-08-19T13:47:38;34.70;60.80
52555;DHT22;38455;52.710;6.502;2022-08-19T13:50:11;34.40;62.10
52555;DHT22;38455;52.710;6.502;2022-08-19T13:52:38;34.40;61.50
52555;DHT22;38455;52.710;6.502;2022-08-19T13:55:05;34.30;62.20
52555;DHT22;38455;52.710;6.502;2022-08-19T13:57:31;33.90;61.30
52555;DHT22;38455;52.710;6.502;2022-08-19T13:59:57;33.80;61.20
52555;DHT22;38455;52.710;6.502;2022-08-19T14:02:23;33.70;60.80
52555;DHT22;38455;52.710;6.502;2022-08-19T14:04:49;33.60;61.30
52555;DHT22;38455;52.710;6.502;2022-08-19T14:07:15;33.50;61.70
52555;DHT22;38455;52.710;6.502;2022-08-19T14:09:40;33.20;62.90
52555;DHT22;38455;52.710;6.502;2022-08-19T14:12:06;32.90;62.40
52555;DHT22;38455;52.710;6.502;2022-08-19T14:14:35;32.80;62.00
52555;DHT22;38455;52.710;6.502;2022-08-19T14:17:01;32.80;62.30
52555;DHT22;38455;52.710;6.502;2022-08-19T14:19:26;32.80;62.50
52555;DHT22;38455;52.710;6.502;2022-08-19T14:21:52;32.80;63.70
52555;DHT22;38455;52.710;6.502;2022-08-19T14:24:17;32.80;63.50
52555;DHT22;38455;52.710;6.502;2022-08-19T14:26:43;32.50;65.00
52555;DHT22;38455;52.710;6.502;2022-08-19T14:29:09;32.20;65.40
52555;DHT22;38455;52.710;6.502;2022-08-19T14:31:34;31.90;66.10
52555;DHT22;38455;52.710;6.502;2022-08-19T14:34:00;31.90;65.80
52555;DHT22;38455;52.710;6.502;2022-08-19T14:36:26;31.60;67.50
52555;DHT22;38455;52.710;6.502;2022-08-19T14:38:52;31.40;67.80
52555;DHT22;38455;52.710;6.502;2022-08-19T14:41:22;31.50;69.50
52555;DHT22;38455;52.710;6.502;2022-08-19T14:43:49;31.10;68.90
52555;DHT22;38455;52.710;6.502;2022-08-19T14:46:18;30.70;70.00
52555;DHT22;38455;52.710;6.502;2022-08-19T14:48:45;30.90;70.60
52555;DHT22;38455;52.710;6.502;2022-08-19T14:51:11;30.70;69.40
52555;DHT22;38455;52.710;6.502;2022-08-19T14:53:37;30.40;69.10
52555;DHT22;38455;52.710;6.502;2022-08-19T14:56:11;30.30;69.90
52555;DHT22;38455;52.710;6.502;2022-08-19T14:58:38;30.00;71.50
52555;DHT22;38455;52.710;6.502;2022-08-19T15:01:05;30.10;71.20
52555;DHT22;38455;52.710;6.502;2022-08-19T15:03:31;30.00;71.20
52555;DHT22;38455;52.710;6.502;2022-08-19T15:05:57;30.00;71.00
52555;DHT22;38455;52.710;6.502;2022-08-19T15:08:23;29.90;71.20
52555;DHT22;38455;52.710;6.502;2022-08-19T15:10:51;29.90;72.00
52555;DHT22;38455;52.710;6.502;2022-08-19T15:13:17;29.70;73.00
52555;DHT22;38455;52.710;6.502;2022-08-19T15:15:43;29.80;73.10
52555;DHT22;38455;52.710;6.502;2022-08-19T15:18:09;29.60;74.80
52555;DHT22;38455;52.710;6.502;2022-08-19T15:20:36;29.40;74.80
52555;DHT22;38455;52.710;6.502;2022-08-19T15:23:02;29.40;75.80
52555;DHT22;38455;52.710;6.502;2022-08-19T15:25:27;29.50;75.50
52555;DHT22;38455;52.710;6.502;2022-08-19T15:27:53;29.50;76.20
52555;DHT22;38455;52.710;6.502;2022-08-19T15:30:23;29.30;76.80
52555;DHT22;38455;52.710;6.502;2022-08-19T15:32:50;29.20;77.10
52555;DHT22;38455;52.710;6.502;2022-08-19T15:35:18;29.20;77.00
52555;DHT22;38455;52.710;6.502;2022-08-19T15:37:44;29.10;77.20
52555;DHT22;38455;52.710;6.502;2022-08-19T15:40:10;29.10;77.70
52555;DHT22;38455;52.710;6.502;2022-08-19T15:42:37;29.10;77.80
52555;DHT22;38455;52.710;6.502;2022-08-19T15:45:07;28.90;78.00
52555;DHT22;38455;52.710;6.502;2022-08-19T15:47:34;28.80;78.40